Portada
METAR-TAF:

METAR-TAF

Aeroports :

Jacksonville Municipal Airport

Jacksonville, Illinois, Estats Units d'Amèrica

latitud: 39-46-27N, longitud: 090-14-19W, altitud: 190 m

Observació

L'informe es va fer fa 18 minuts, a les 10:35 UTC
Vent 10 kt del Nord-Oest
Temperatura -13°C
Humitat 72%
Pressió 1035 hPa
Visibilitat: 16.1 km
Cel clar

METAR: KIJX 121035Z AUTO 32010KT 10SM CLR M13/M17 A3056 RMK AO2 T11311167

Hora: 04:53 (10:53 UTC)


TAF: manca

Observacions i pronòstics meteorològics de més de 4000 aeroports (METAR i TAF).

Les estacions disponibles són els punts grocs i vermells al mapa.

Posi el ratolí al punt desitjat per veure el nom de l'estació.

Feu clic per veure les observacions i els pronòstics meteorològics.

Per canviar el mapa: feu clic els botons verds amb una creu de color negre per apropar; al botó verd amb un guió per allunyar la imatge; o en les fletxes verdes per a mapes adjacents.


METAR-TAF: